createdAt,value
2017-07-18T00:02:08.251Z,6.00
2017-07-18T00:04:36.564Z,6.07
2017-07-18T00:07:04.150Z,12.67
2017-07-18T00:09:31.597Z,6.07
2017-07-18T00:11:59.039Z,7.67
2017-07-18T00:14:26.567Z,5.57
2017-07-18T00:16:53.987Z,5.73
2017-07-18T00:19:21.458Z,13.13
2017-07-18T00:21:49.089Z,11.90
2017-07-18T00:24:16.575Z,9.70
2017-07-18T00:26:44.152Z,9.60
2017-07-18T00:29:11.766Z,13.53
2017-07-18T00:31:39.203Z,14.43
2017-07-18T00:34:06.715Z,15.77
2017-07-18T00:36:34.971Z,12.40
2017-07-18T00:39:02.466Z,9.37
2017-07-18T00:41:29.982Z,12.87
2017-07-18T00:43:57.446Z,8.93
2017-07-18T00:46:24.998Z,10.30
2017-07-18T00:48:52.499Z,7.33
2017-07-18T00:51:20.028Z,7.30
2017-07-18T00:53:48.389Z,11.43
2017-07-18T00:56:15.844Z,9.80
2017-07-18T00:58:43.362Z,13.93
2017-07-18T01:01:11.716Z,9.10
2017-07-18T01:03:39.974Z,8.97
2017-07-18T01:06:07.480Z,10.10
2017-07-18T01:08:34.959Z,8.47
2017-07-18T01:11:02.431Z,8.40
2017-07-18T01:13:29.891Z,8.97
2017-07-18T01:15:57.350Z,9.17
2017-07-18T01:18:24.807Z,10.67
2017-07-18T01:20:52.275Z,12.83
2017-07-18T01:23:19.815Z,15.80
2017-07-18T01:25:47.267Z,15.33
2017-07-18T01:28:14.805Z,16.43
2017-07-18T01:30:42.347Z,12.60
2017-07-18T01:33:10.609Z,14.60
2017-07-18T01:35:38.074Z,12.20
2017-07-18T01:38:05.552Z,11.47
2017-07-18T01:40:33.000Z,12.40
2017-07-18T01:43:00.524Z,9.60
2017-07-18T01:45:28.012Z,10.27
2017-07-18T01:47:55.459Z,13.90
2017-07-18T01:50:23.134Z,10.57
2017-07-18T01:52:50.680Z,9.07
2017-07-18T01:55:18.899Z,9.33
2017-07-18T01:57:46.408Z,8.57
2017-07-18T02:00:14.661Z,9.57
2017-07-18T02:02:42.213Z,8.87
2017-07-18T02:05:09.720Z,11.20
2017-07-18T02:07:38.076Z,11.80
2017-07-18T02:10:05.552Z,10.97
2017-07-18T02:12:33.170Z,10.10
2017-07-18T02:15:00.637Z,14.17
2017-07-18T02:17:28.158Z,8.67
2017-07-18T02:19:55.628Z,10.60
2017-07-18T02:22:23.116Z,10.43
2017-07-18T02:24:50.564Z,11.50
2017-07-18T02:27:18.146Z,13.03
2017-07-18T02:29:45.571Z,10.57
2017-07-18T02:32:13.025Z,11.87
2017-07-18T02:34:41.001Z,13.63
2017-07-18T02:37:08.459Z,14.33
2017-07-18T02:39:35.935Z,11.97
2017-07-18T02:42:03.688Z,9.93
2017-07-18T02:44:31.197Z,11.93
2017-07-18T02:46:58.641Z,12.03
2017-07-18T02:49:26.122Z,10.80
2017-07-18T02:51:54.839Z,13.83
2017-07-18T02:54:24.539Z,9.67
2017-07-18T02:56:52.096Z,11.33
2017-07-18T02:59:19.622Z,9.90
2017-07-18T03:01:47.958Z,14.57
2017-07-18T03:04:16.475Z,12.97
2017-07-18T03:06:44.132Z,9.73
2017-07-18T03:09:11.851Z,9.87
2017-07-18T03:11:39.388Z,17.90
2017-07-18T03:14:06.845Z,15.13
2017-07-18T03:16:34.374Z,14.67
2017-07-18T03:19:02.638Z,12.43
2017-07-18T03:21:30.867Z,12.53
2017-07-18T03:23:58.357Z,16.20
2017-07-18T03:26:25.832Z,13.53
2017-07-18T03:28:54.640Z,14.07
2017-07-18T03:31:22.184Z,14.40
2017-07-18T03:33:49.779Z,17.43
2017-07-18T03:36:17.236Z,20.70
2017-07-18T03:38:44.773Z,19.00
2017-07-18T03:41:12.292Z,26.00
2017-07-18T03:43:39.748Z,21.20
2017-07-18T03:46:09.032Z,28.67
2017-07-18T03:48:37.381Z,30.00
2017-07-18T03:51:04.836Z,30.40
2017-07-18T03:53:32.281Z,24.53
2017-07-18T03:55:59.873Z,26.43
2017-07-18T03:58:30.468Z,34.40
2017-07-18T04:00:57.977Z,26.93
2017-07-18T04:03:26.296Z,23.87
2017-07-18T04:05:54.831Z,23.10
2017-07-18T04:08:22.428Z,18.50
2017-07-18T04:10:50.692Z,18.80
2017-07-18T04:13:20.377Z,13.63
2017-07-18T04:15:48.465Z,13.80
2017-07-18T04:18:15.941Z,14.73
2017-07-18T04:20:43.403Z,14.93
2017-07-18T04:23:11.653Z,14.60
2017-07-18T04:25:39.442Z,13.53
2017-07-18T04:28:07.015Z,16.53
2017-07-18T04:30:34.476Z,16.73
2017-07-18T04:33:02.784Z,16.73
2017-07-18T04:38:08.070Z,12.30
2017-07-18T04:40:36.234Z,15.47
2017-07-18T04:43:03.889Z,15.50
2017-07-18T04:45:31.456Z,16.20
2017-07-18T04:47:59.039Z,16.80
2017-07-18T04:50:26.635Z,14.70
2017-07-18T04:52:54.801Z,22.90
2017-07-18T04:55:23.031Z,15.97
2017-07-18T04:57:50.512Z,10.80
2017-07-18T05:00:18.063Z,14.30
2017-07-18T05:02:45.513Z,15.50
2017-07-18T05:05:12.997Z,21.33
2017-07-18T05:07:40.860Z,15.60
2017-07-18T05:10:09.110Z,13.83
2017-07-18T05:12:37.601Z,15.90
2017-07-18T05:15:05.276Z,16.43
2017-07-18T05:17:32.734Z,17.30
2017-07-18T05:20:00.290Z,12.40
2017-07-18T05:22:28.484Z,13.37
2017-07-18T05:24:55.937Z,14.00
2017-07-18T05:27:23.686Z,15.60
2017-07-18T05:29:51.632Z,14.17
2017-07-18T05:32:19.199Z,18.13
2017-07-18T05:34:46.662Z,15.90
2017-07-18T05:37:14.945Z,16.30
2017-07-18T05:39:42.410Z,15.17
2017-07-18T05:42:10.652Z,19.27
2017-07-18T05:44:38.156Z,22.73
2017-07-18T05:47:05.710Z,15.63
2017-07-18T05:49:33.237Z,16.40
2017-07-18T05:52:01.012Z,23.40
2017-07-18T05:54:28.512Z,14.60
2017-07-18T05:56:55.973Z,15.00
2017-07-18T05:59:23.628Z,13.07
2017-07-18T06:01:51.163Z,13.90
2017-07-18T06:04:19.388Z,16.90
2017-07-18T06:06:46.904Z,11.67
2017-07-18T06:09:15.195Z,17.20
2017-07-18T06:11:42.701Z,15.63
2017-07-18T06:14:11.435Z,13.10
2017-07-18T06:16:42.757Z,12.80
2017-07-18T06:19:10.469Z,11.57
2017-07-18T06:21:38.070Z,10.10
2017-07-18T06:24:07.446Z,11.53
2017-07-18T06:26:35.413Z,11.70
2017-07-18T06:29:04.481Z,12.67
2017-07-18T06:31:32.839Z,9.70
2017-07-18T06:34:00.606Z,9.57
2017-07-18T06:36:29.227Z,8.80
2017-07-18T06:38:57.576Z,8.73
2017-07-18T06:41:25.380Z,8.03
2017-07-18T06:43:54.887Z,12.03
2017-07-18T06:46:22.490Z,10.30
2017-07-18T06:48:50.018Z,8.33
2017-07-18T06:51:17.796Z,14.30
2017-07-18T06:53:45.411Z,11.90
2017-07-18T06:56:12.974Z,11.27
2017-07-18T06:58:41.586Z,12.47
2017-07-18T07:01:09.054Z,12.93
2017-07-18T07:03:37.682Z,9.27
2017-07-18T07:06:05.940Z,9.03
2017-07-18T07:08:33.538Z,7.83
2017-07-18T07:11:01.347Z,8.23
2017-07-18T07:13:28.849Z,9.40
2017-07-18T07:15:56.348Z,8.50
2017-07-18T07:18:29.760Z,9.63
2017-07-18T07:20:57.926Z,7.43
2017-07-18T07:23:25.465Z,7.73
2017-07-18T07:25:54.305Z,11.10
2017-07-18T07:28:23.991Z,8.30
2017-07-18T07:30:59.172Z,6.10
2017-07-18T07:33:27.068Z,10.17
2017-07-18T07:35:54.777Z,8.67
2017-07-18T07:38:25.375Z,6.90
2017-07-18T07:43:27.984Z,8.80
2017-07-18T07:45:57.037Z,7.80
2017-07-18T07:48:24.750Z,6.50
2017-07-18T07:50:57.535Z,6.47
2017-07-18T07:53:25.878Z,10.03
2017-07-18T07:55:54.340Z,5.60
2017-07-18T07:58:22.028Z,6.60
2017-07-18T08:00:49.608Z,7.87
2017-07-18T08:03:17.903Z,7.23
2017-07-18T08:05:45.452Z,7.17
2017-07-18T08:08:13.284Z,6.03
2017-07-18T08:10:41.148Z,7.50
2017-07-18T08:13:09.089Z,10.80
2017-07-18T08:15:36.988Z,6.63
2017-07-18T08:18:05.432Z,8.40
2017-07-18T08:20:32.949Z,6.60
2017-07-18T08:23:00.443Z,5.00
2017-07-18T08:25:27.993Z,5.77
2017-07-18T08:27:55.957Z,7.60
2017-07-18T08:30:24.269Z,6.23
2017-07-18T08:35:31.399Z,4.83
2017-07-18T08:38:00.771Z,6.83
2017-07-18T08:40:29.033Z,7.67
2017-07-18T08:42:56.681Z,9.07
2017-07-18T08:45:24.226Z,6.80
2017-07-18T08:47:52.010Z,4.87
2017-07-18T08:50:20.435Z,7.13
2017-07-18T08:52:47.912Z,7.67
2017-07-18T08:55:15.512Z,8.23
2017-07-18T08:57:43.403Z,5.23
2017-07-18T09:00:11.013Z,7.63
2017-07-18T09:02:39.318Z,5.73
2017-07-18T09:05:07.234Z,6.50
2017-07-18T09:07:35.578Z,6.20
2017-07-18T09:10:03.072Z,4.27
2017-07-18T09:12:30.796Z,6.37
2017-07-18T09:14:58.296Z,5.23
2017-07-18T09:17:26.020Z,3.93
2017-07-18T09:19:54.434Z,4.40
2017-07-18T09:22:22.481Z,3.40
2017-07-18T09:24:50.683Z,3.83
2017-07-18T09:27:18.244Z,5.03
2017-07-18T09:29:45.932Z,3.97
2017-07-18T09:32:13.645Z,8.37
2017-07-18T09:34:42.068Z,4.00
2017-07-18T09:37:09.741Z,5.33
2017-07-18T09:39:37.401Z,7.13
2017-07-18T09:42:05.722Z,5.33
2017-07-18T09:44:33.400Z,3.20
2017-07-18T09:47:00.888Z,5.53
2017-07-18T09:49:28.438Z,4.67
2017-07-18T09:51:55.889Z,4.77
2017-07-18T09:54:23.387Z,3.20
2017-07-18T09:56:50.879Z,4.83
2017-07-18T09:59:18.479Z,3.27
2017-07-18T10:01:45.991Z,4.20
2017-07-18T10:04:13.513Z,4.30
2017-07-18T10:06:41.058Z,3.20
2017-07-18T10:09:08.599Z,3.90
2017-07-18T10:11:36.943Z,4.40
2017-07-18T10:14:04.379Z,3.83
2017-07-18T10:16:32.275Z,4.83
2017-07-18T10:19:00.811Z,5.87
2017-07-18T10:21:28.340Z,3.90
2017-07-18T10:23:55.855Z,7.13
2017-07-18T10:26:23.594Z,6.80
2017-07-18T10:28:52.572Z,5.40
2017-07-18T10:31:20.037Z,5.60
2017-07-18T10:33:47.630Z,4.03
2017-07-18T10:36:15.146Z,6.23
2017-07-18T10:38:42.816Z,5.00
2017-07-18T10:41:10.459Z,5.60
2017-07-18T10:43:38.925Z,6.73
2017-07-18T10:46:06.521Z,7.47
2017-07-18T10:48:34.130Z,9.37
2017-07-18T10:51:02.412Z,5.60
2017-07-18T10:53:29.883Z,4.93
2017-07-18T10:55:57.834Z,4.63
2017-07-18T10:58:25.375Z,5.17
2017-07-18T11:00:52.919Z,4.20
2017-07-18T11:03:20.400Z,6.37
2017-07-18T11:05:47.989Z,4.60
2017-07-18T11:08:15.452Z,4.13
2017-07-18T11:10:42.929Z,4.10
2017-07-18T11:13:10.468Z,4.60
2017-07-18T11:15:37.929Z,5.47
2017-07-18T11:18:05.756Z,5.40
2017-07-18T11:20:33.353Z,5.33
2017-07-18T11:23:00.916Z,6.73
2017-07-18T11:25:28.630Z,10.67
2017-07-18T11:27:56.197Z,5.33
2017-07-18T11:30:23.738Z,9.27
2017-07-18T11:32:51.331Z,6.07
2017-07-18T11:35:18.808Z,6.40
2017-07-18T11:37:46.781Z,6.90
2017-07-18T11:40:14.465Z,6.27
2017-07-18T11:42:43.596Z,5.47
2017-07-18T11:45:11.227Z,5.67
2017-07-18T11:47:38.773Z,5.43
2017-07-18T11:50:06.651Z,8.13
2017-07-18T11:52:35.823Z,5.50
2017-07-18T11:55:03.317Z,7.37
2017-07-18T11:57:30.997Z,4.60
2017-07-18T11:59:59.290Z,6.07
2017-07-18T12:02:27.239Z,5.20
2017-07-18T12:04:54.772Z,10.67
2017-07-18T12:07:22.471Z,5.60
2017-07-18T12:09:50.037Z,6.17
2017-07-18T12:12:17.607Z,6.50
2017-07-18T12:14:45.150Z,3.80
2017-07-18T12:17:12.881Z,7.57
2017-07-18T12:19:40.838Z,8.10
2017-07-18T12:22:08.346Z,4.33
2017-07-18T12:24:36.776Z,4.10
2017-07-18T12:27:05.283Z,4.10
2017-07-18T12:29:32.960Z,10.27
2017-07-18T12:32:01.436Z,4.97
2017-07-18T12:34:29.037Z,4.43
2017-07-18T12:36:56.527Z,4.00
2017-07-18T12:39:23.998Z,4.03
2017-07-18T12:41:52.399Z,5.77
2017-07-18T12:44:20.023Z,5.03
2017-07-18T12:46:47.709Z,6.47
2017-07-18T12:49:15.254Z,6.87
2017-07-18T12:51:42.751Z,5.03
2017-07-18T12:54:11.010Z,3.90
2017-07-18T12:56:38.800Z,5.07
2017-07-18T12:59:06.373Z,5.67
2017-07-18T13:01:35.794Z,7.97
2017-07-18T13:04:03.484Z,5.80
2017-07-18T13:06:31.992Z,4.60
2017-07-18T13:11:37.290Z,5.00
2017-07-18T13:14:05.965Z,4.30
2017-07-18T13:19:10.486Z,6.70
2017-07-18T13:21:38.302Z,6.10
2017-07-18T13:24:07.353Z,4.97
2017-07-18T13:26:35.248Z,4.30
2017-07-18T13:29:04.578Z,5.07
2017-07-18T13:31:32.340Z,5.87
2017-07-18T13:33:59.883Z,3.90
2017-07-18T13:36:27.758Z,4.80
2017-07-18T13:38:56.497Z,3.63
2017-07-18T13:41:25.328Z,5.33
2017-07-18T13:43:53.523Z,3.70
2017-07-18T13:46:21.950Z,5.60
2017-07-18T13:48:49.857Z,3.93
2017-07-18T13:51:18.545Z,5.17
2017-07-18T13:53:46.553Z,5.60
2017-07-18T13:56:14.207Z,6.17
2017-07-18T13:58:41.834Z,7.30
2017-07-18T14:01:09.508Z,4.20
2017-07-18T14:03:37.814Z,4.50
2017-07-18T14:06:07.140Z,5.53
2017-07-18T14:08:37.298Z,4.00
2017-07-18T14:11:05.173Z,4.93
2017-07-18T14:13:33.312Z,4.00
2017-07-18T14:16:00.804Z,4.90
2017-07-18T14:18:28.345Z,6.67
2017-07-18T14:20:55.866Z,4.80
2017-07-18T14:23:29.718Z,5.53
2017-07-18T14:25:57.267Z,6.83
2017-07-18T14:28:24.901Z,6.20
2017-07-18T14:30:52.400Z,4.63
2017-07-18T14:33:19.973Z,5.00
2017-07-18T14:35:48.039Z,5.17
2017-07-18T14:38:17.993Z,3.83
2017-07-18T14:40:45.749Z,3.63
2017-07-18T14:43:14.401Z,8.70
2017-07-18T14:45:42.453Z,4.60
2017-07-18T14:48:10.145Z,4.70
2017-07-18T14:50:39.242Z,4.80
2017-07-18T14:53:07.174Z,4.10
2017-07-18T14:55:36.234Z,4.33
2017-07-18T15:00:43.081Z,12.37
2017-07-18T15:03:11.600Z,4.50
2017-07-18T15:05:39.151Z,5.60
2017-07-18T15:08:08.022Z,4.20
2017-07-18T15:10:35.664Z,5.40
2017-07-18T15:13:03.941Z,4.40
2017-07-18T15:15:31.527Z,7.20
2017-07-18T15:17:59.129Z,5.40
2017-07-18T15:20:26.976Z,5.53
2017-07-18T15:22:54.827Z,4.83
2017-07-18T15:25:22.439Z,4.30
2017-07-18T15:27:50.003Z,7.70
2017-07-18T15:30:22.324Z,4.90
2017-07-18T15:32:52.960Z,8.10
2017-07-18T15:35:21.246Z,5.03
2017-07-18T15:40:37.272Z,3.97
2017-07-18T15:43:08.983Z,5.20
2017-07-18T15:45:37.527Z,4.60
2017-07-18T15:48:13.024Z,4.20
2017-07-18T15:50:46.675Z,6.53
2017-07-18T15:53:22.346Z,6.17
2017-07-18T15:55:52.278Z,4.03
2017-07-18T15:58:21.982Z,4.13
2017-07-18T16:01:18.117Z,6.40
2017-07-18T16:03:46.442Z,7.03
2017-07-18T16:06:16.154Z,9.27
2017-07-18T16:08:58.348Z,4.57
2017-07-18T16:11:35.536Z,8.43
2017-07-18T16:14:03.151Z,4.00
2017-07-18T16:16:36.380Z,4.33
2017-07-18T16:19:06.355Z,5.17
2017-07-18T16:21:33.856Z,4.00
2017-07-18T16:24:07.443Z,4.80
2017-07-18T16:26:36.099Z,3.63
2017-07-18T16:29:07.736Z,4.90
2017-07-18T16:34:16.616Z,3.80
2017-07-18T16:36:44.344Z,4.20
2017-07-18T16:39:12.279Z,6.60
2017-07-18T16:41:40.813Z,5.90
2017-07-18T16:44:10.325Z,8.23
2017-07-18T16:46:40.884Z,5.90
2017-07-18T16:49:11.604Z,3.70
2017-07-18T16:51:42.963Z,8.23
2017-07-18T16:54:11.669Z,5.03
2017-07-18T16:56:39.539Z,6.80
2017-07-18T16:59:12.083Z,5.30
2017-07-18T17:04:21.540Z,5.30
2017-07-18T17:09:33.127Z,5.10
2017-07-18T17:12:04.398Z,5.23
2017-07-18T17:14:33.085Z,4.50
2017-07-18T17:17:03.520Z,5.93
2017-07-18T17:19:37.544Z,3.87
2017-07-18T17:22:12.110Z,4.03
2017-07-18T17:24:53.107Z,3.17
2017-07-18T17:27:21.692Z,6.07
2017-07-18T17:29:49.338Z,6.07
2017-07-18T17:32:18.663Z,6.30
2017-07-18T17:39:58.609Z,5.10
2017-07-18T17:42:29.020Z,4.57
2017-07-18T17:44:59.396Z,5.00
2017-07-18T17:50:04.625Z,4.20
2017-07-18T17:52:36.169Z,5.33
2017-07-18T17:57:47.132Z,5.17
2017-07-18T18:00:19.727Z,4.70
2017-07-18T18:02:50.155Z,4.70
2017-07-18T18:05:21.443Z,4.50
2017-07-18T18:07:54.037Z,7.35
2017-07-18T18:10:22.904Z,5.23
2017-07-18T18:12:50.737Z,5.17
2017-07-18T18:15:18.314Z,5.50
2017-07-18T18:17:46.961Z,4.97
2017-07-18T18:20:14.960Z,4.83
2017-07-18T18:22:42.867Z,4.77
2017-07-18T18:25:15.020Z,7.13
2017-07-18T18:27:44.077Z,4.07
2017-07-18T18:30:13.973Z,4.60
2017-07-18T18:32:44.638Z,4.83
2017-07-18T18:35:14.244Z,5.30
2017-07-18T18:37:43.890Z,4.90
2017-07-18T18:40:15.171Z,4.70
2017-07-18T18:42:42.738Z,8.23
2017-07-18T18:48:05.797Z,9.60
2017-07-18T18:50:34.289Z,7.27
2017-07-18T18:53:01.911Z,6.97
2017-07-18T18:55:32.600Z,9.40
2017-07-18T18:58:01.335Z,4.37
2017-07-18T19:00:31.378Z,7.33
2017-07-18T19:03:00.284Z,5.43
2017-07-18T19:05:27.959Z,5.40
2017-07-18T19:07:55.489Z,8.77
2017-07-18T19:10:23.152Z,5.33
2017-07-18T19:12:52.376Z,5.97
2017-07-18T19:15:20.029Z,4.53
2017-07-18T19:17:47.560Z,4.47
2017-07-18T19:20:15.383Z,6.83
2017-07-18T19:25:24.356Z,6.50
2017-07-18T19:27:52.907Z,5.93
2017-07-18T19:30:23.837Z,7.13
2017-07-18T19:32:51.403Z,6.73
2017-07-18T19:35:20.667Z,6.37
2017-07-18T19:37:48.418Z,4.43
2017-07-18T19:40:18.781Z,5.37
2017-07-18T19:42:49.705Z,7.23
2017-07-18T19:45:18.144Z,6.97
2017-07-18T19:47:48.015Z,8.63
2017-07-18T19:50:16.362Z,5.77
2017-07-18T19:52:44.246Z,5.97
2017-07-18T19:55:12.682Z,4.87
2017-07-18T19:57:40.205Z,6.13
2017-07-18T20:00:07.774Z,6.30
2017-07-18T20:02:47.351Z,5.00
2017-07-18T20:05:15.074Z,5.53
2017-07-18T20:07:43.791Z,5.13
2017-07-18T20:10:14.748Z,4.87
2017-07-18T20:12:46.534Z,6.60
2017-07-18T20:15:19.178Z,6.17
2017-07-18T20:17:48.274Z,10.10
2017-07-18T20:20:20.797Z,7.53
2017-07-18T20:22:53.088Z,9.20
2017-07-18T20:25:24.295Z,10.13
2017-07-18T20:27:51.982Z,10.63
2017-07-18T20:30:19.626Z,9.10
2017-07-18T20:32:51.776Z,10.00
2017-07-18T20:35:19.559Z,10.60
2017-07-18T20:37:51.098Z,8.90
2017-07-18T20:40:24.650Z,10.93
2017-07-18T20:42:55.289Z,9.93
2017-07-18T20:45:25.426Z,11.47
2017-07-18T20:47:53.096Z,10.07
2017-07-18T20:50:21.710Z,14.33
2017-07-18T20:52:49.330Z,7.90
2017-07-18T20:57:51.682Z,12.10
2017-07-18T21:00:20.603Z,17.70
2017-07-18T21:02:54.307Z,9.83
2017-07-18T21:05:21.889Z,11.47
2017-07-18T21:07:49.417Z,12.03
2017-07-18T21:10:19.687Z,8.43
2017-07-18T21:12:48.731Z,9.50
2017-07-18T21:15:16.429Z,6.13
2017-07-18T21:17:47.981Z,9.73
2017-07-18T21:20:19.974Z,9.50
2017-07-18T21:22:47.512Z,8.20
2017-07-18T21:25:15.992Z,10.47
2017-07-18T21:27:44.352Z,8.73
2017-07-18T21:30:11.812Z,10.17
2017-07-18T21:32:40.850Z,14.30
2017-07-18T21:35:08.378Z,21.23
2017-07-18T21:37:35.879Z,10.03
2017-07-18T21:40:03.476Z,12.10
2017-07-18T21:42:31.058Z,15.13
2017-07-18T21:44:58.704Z,10.00
2017-07-18T21:47:26.299Z,11.13
2017-07-18T21:49:57.492Z,9.53
2017-07-18T21:52:25.567Z,12.43
2017-07-18T21:54:53.059Z,10.37
2017-07-18T21:57:21.381Z,10.83
2017-07-18T21:59:50.843Z,12.43
2017-07-18T22:02:18.513Z,12.60
2017-07-18T22:04:46.281Z,8.93
2017-07-18T22:07:13.837Z,11.20
2017-07-18T22:09:42.117Z,9.47
2017-07-18T22:12:09.636Z,10.80
2017-07-18T22:14:37.149Z,9.43
2017-07-18T22:17:04.682Z,9.20
2017-07-18T22:19:32.155Z,9.97
2017-07-18T22:21:59.652Z,10.80
2017-07-18T22:24:27.567Z,7.70
2017-07-18T22:26:55.109Z,10.13
2017-07-18T22:29:23.391Z,10.40
2017-07-18T22:31:51.944Z,10.30
2017-07-18T22:34:20.540Z,11.63
2017-07-18T22:36:48.873Z,8.63
2017-07-18T22:39:17.113Z,11.50
2017-07-18T22:41:44.567Z,8.93
2017-07-18T22:44:12.070Z,11.17
2017-07-18T22:46:39.667Z,7.70
2017-07-18T22:49:07.191Z,10.17
2017-07-18T22:51:34.664Z,8.23
2017-07-18T22:54:02.329Z,7.90
2017-07-18T22:56:29.820Z,9.40
2017-07-18T22:58:57.358Z,9.20
2017-07-18T23:01:25.190Z,9.17
2017-07-18T23:03:52.681Z,7.93
2017-07-18T23:06:20.987Z,14.00
2017-07-18T23:08:48.480Z,9.10
2017-07-18T23:11:15.922Z,9.90
2017-07-18T23:13:43.501Z,8.40
2017-07-18T23:16:10.988Z,9.50
2017-07-18T23:18:38.552Z,9.90
2017-07-18T23:21:05.975Z,10.27
2017-07-18T23:23:34.305Z,8.97
2017-07-18T23:26:02.023Z,11.20
2017-07-18T23:28:29.570Z,10.90
2017-07-18T23:30:57.021Z,11.70
2017-07-18T23:33:24.508Z,11.27
2017-07-18T23:35:52.019Z,10.77
2017-07-18T23:38:19.591Z,13.13
2017-07-18T23:40:47.115Z,14.90
2017-07-18T23:43:14.599Z,14.40
2017-07-18T23:45:42.895Z,14.60
2017-07-18T23:48:10.439Z,11.07
2017-07-18T23:50:37.922Z,10.93
2017-07-18T23:53:05.399Z,13.63
2017-07-18T23:55:32.839Z,12.30
2017-07-18T23:58:00.299Z,9.90
